Time;durP1;ratioP1;P1;durP2;ratioP2;P2;SDS_P1;SDS_P2;PMS_P1;PMS_P2;Temp;Humidity;BMP_temperature;BMP_pressure;BME280_temperature;BME280_humidity;BME280_pressure;Samples;Min_cycle;Max_cycle;Signal;HPM_P1;HPM_P2
2022/09/07 00:00:54;;;;;;;0.80;0.70;;;;;;;19.33;61.66;100807.06;4989793;28;20030;-67
2022/09/07 00:03:20;;;;;;;1.55;0.95;;;;;;;19.37;61.57;100813.25;4985138;28;20490;-67
2022/09/07 00:05:48;;;;;;;1.67;1.00;;;;;;;19.34;61.28;100820.28;4989927;28;20036;-67
2022/09/07 00:08:15;;;;;;;0.80;0.80;;;;;;;19.37;61.24;100814.03;4990257;28;20052;-67
2022/09/07 00:10:40;;;;;;;1.63;0.77;;;;;;;19.40;60.59;100815.16;4989091;28;20030;-67
2022/09/07 00:13:09;;;;;;;1.27;0.90;;;;;;;19.39;60.87;100819.06;4988455;28;20513;-67
2022/09/07 00:15:39;;;;;;;2.33;1.23;;;;;;;19.39;60.75;100821.81;4982222;28;20464;-67
2022/09/07 00:18:04;;;;;;;1.45;1.10;;;;;;;19.43;60.67;100817.06;4988376;28;20510;-67
2022/09/07 00:20:30;;;;;;;1.52;0.80;;;;;;;19.35;61.31;100819.13;4990011;28;20030;-67
2022/09/07 00:22:55;;;;;;;1.88;0.90;;;;;;;19.38;61.13;100822.97;4989966;28;20026;-67
2022/09/07 00:25:21;;;;;;;1.38;0.82;;;;;;;19.35;61.54;100821.06;5003347;28;20442;-68
2022/09/07 00:27:46;;;;;;;1.05;0.88;;;;;;;19.28;61.80;100819.16;4987494;28;20068;-67
2022/09/07 00:30:12;;;;;;;1.70;0.75;;;;;;;19.28;62.31;100819.16;4972636;28;20121;-67
2022/09/07 00:32:37;;;;;;;1.30;0.75;;;;;;;19.20;62.76;100806.03;4990409;28;20034;-67
2022/09/07 00:35:03;;;;;;;1.10;0.52;;;;;;;19.20;62.44;100814.22;4981921;28;20061;-67
2022/09/07 00:37:29;;;;;;;1.35;0.68;;;;;;;19.23;61.74;100814.16;4991027;28;20129;-67
2022/09/07 00:39:54;;;;;;;2.65;0.80;;;;;;;19.19;62.48;100810.72;4989239;28;20034;-67
2022/09/07 00:42:21;;;;;;;0.98;0.70;;;;;;;19.22;62.36;100807.16;4989071;28;20035;-67
2022/09/07 00:45:01;;;;;;;1.10;0.80;;;;;;;19.20;62.27;100798.59;4992509;28;20055;-67
2022/09/07 00:47:54;;;;;;;1.58;0.80;;;;;;;19.23;62.57;100805.19;4978056;28;20832;-67
2022/09/07 00:50:42;;;;;;;1.00;0.80;;;;;;;19.09;63.36;100794.44;4987574;28;20118;-67
2022/09/07 00:53:15;;;;;;;1.02;0.80;;;;;;;19.12;63.10;100788.97;4988742;28;20108;-67
2022/09/07 00:55:43;;;;;;;1.33;0.82;;;;;;;19.10;63.08;100794.06;4992432;28;20038;-67
2022/09/07 00:58:09;;;;;;;0.85;0.70;;;;;;;19.13;62.91;100782.31;4976139;28;20058;-67
2022/09/07 01:00:35;;;;;;;0.77;0.60;;;;;;;19.10;62.54;100785.09;4990836;28;20022;-67
2022/09/07 01:03:02;;;;;;;0.93;0.68;;;;;;;19.04;63.30;100781.25;4988070;28;20035;-67
2022/09/07 01:05:54;;;;;;;3.10;0.95;;;;;;;18.98;64.34;100786.41;5003851;28;20077;-67
2022/09/07 01:08:20;;;;;;;2.15;0.85;;;;;;;18.95;64.27;100776.28;4991872;28;20521;-67
2022/09/07 01:10:46;;;;;;;2.10;0.93;;;;;;;19.01;63.71;100776.63;4994021;28;20034;-67
2022/09/07 01:13:11;;;;;;;1.52;0.90;;;;;;;19.05;62.70;100778.09;4971779;28;20051;-67
2022/09/07 01:15:59;;;;;;;1.35;0.93;;;;;;;19.00;63.26;100781.31;4990861;28;20039;-67
2022/09/07 01:19:03;;;;;;;1.88;0.68;;;;;;;18.98;63.19;100772.75;4992794;28;20034;-67
2022/09/07 01:21:53;;;;;;;1.20;1.00;;;;;;;18.97;63.28;100778.63;4992429;28;20034;-67
2022/09/07 01:24:41;;;;;;;1.73;0.90;;;;;;;19.09;62.87;100770.66;4987187;28;20068;-67
2022/09/07 01:27:41;;;;;;;0.80;0.80;;;;;;;19.03;62.92;100764.09;5001572;28;20697;-67
2022/09/07 01:30:15;;;;;;;0.98;0.68;;;;;;;19.04;62.48;100759.41;4990969;28;20037;-67
2022/09/07 01:33:05;;;;;;;0.90;0.80;;;;;;;19.06;62.58;100771.47;4981336;28;20026;-67
2022/09/07 01:36:01;;;;;;;2.15;1.10;;;;;;;19.08;62.24;100754.69;4992548;28;20038;-67
2022/09/07 01:38:51;;;;;;;1.20;0.80;;;;;;;19.07;61.63;100764.81;4991504;28;20027;-67
2022/09/07 01:41:28;;;;;;;0.80;0.80;;;;;;;19.06;61.52;100766.03;4988512;28;20041;-67
2022/09/07 01:44:03;;;;;;;1.58;0.85;;;;;;;19.07;61.73;100756.63;4984564;28;20133;-67
2022/09/07 01:46:35;;;;;;;2.80;1.20;;;;;;;19.05;61.04;100745.34;4993329;28;20077;-67
2022/09/07 01:49:19;;;;;;;1.25;0.95;;;;;;;19.07;60.96;100747.66;4992604;28;20101;-67
2022/09/07 01:51:49;;;;;;;1.98;0.90;;;;;;;19.07;60.98;100740.25;4989227;28;20274;-67
2022/09/07 01:54:28;;;;;;;0.88;0.82;;;;;;;19.07;61.32;100753.91;4988350;28;20074;-67
2022/09/07 01:57:00;;;;;;;1.38;0.93;;;;;;;19.04;60.63;100746.53;4991450;28;20039;-67
2022/09/07 01:59:47;;;;;;;1.55;1.05;;;;;;;19.11;60.65;100742.94;5006224;28;20114;-67
2022/09/07 02:02:23;;;;;;;2.00;1.20;;;;;;;19.13;60.59;100738.63;4991114;28;20383;-67
2022/09/07 02:04:59;;;;;;;1.02;0.93;;;;;;;19.17;60.03;100733.09;4987305;28;20438;-67
2022/09/07 02:07:24;;;;;;;0.80;0.65;;;;;;;19.13;60.27;100729.63;4990304;28;20100;-67
2022/09/07 02:10:15;;;;;;;1.00;0.73;;;;;;;19.19;59.86;100731.50;4985877;28;20033;-67
2022/09/07 02:12:51;;;;;;;1.40;1.10;;;;;;;19.12;59.84;100734.34;4992232;28;20045;-67
2022/09/07 02:15:23;;;;;;;1.05;0.90;;;;;;;19.15;59.52;100730.00;4991504;28;20046;-67
2022/09/07 02:17:54;;;;;;;1.23;0.93;;;;;;;19.15;59.67;100728.06;4992491;28;20036;-67
2022/09/07 02:20:31;;;;;;;1.23;1.00;;;;;;;19.12;59.56;100736.31;4992877;28;20038;-67
2022/09/07 02:23:19;;;;;;;1.02;0.90;;;;;;;19.03;59.47;100736.03;4992858;28;20065;-67
2022/09/07 02:25:52;;;;;;;1.42;1.17;;;;;;;19.08;59.66;100741.03;4956954;28;20555;-67
2022/09/07 02:28:26;;;;;;;1.73;1.00;;;;;;;19.10;58.99;100744.13;4959102;28;20069;-67
2022/09/07 02:30:51;;;;;;;1.05;0.85;;;;;;;19.09;59.54;100743.34;4942240;28;20115;-67
2022/09/07 02:33:17;;;;;;;1.70;1.20;;;;;;;19.13;59.59;100741.34;4967193;28;20480;-67
2022/09/07 02:35:42;;;;;;;2.53;1.13;;;;;;;19.19;59.61;100744.38;4953990;28;20114;-67
2022/09/07 02:38:08;;;;;;;2.15;0.82;;;;;;;19.19;59.43;100728.78;4951324;28;20063;-67
2022/09/07 02:40:34;;;;;;;1.85;1.00;;;;;;;19.23;58.77;100731.47;4958992;28;20117;-67
2022/09/07 02:43:04;;;;;;;2.40;1.02;;;;;;;19.13;59.50;100730.41;4939380;29;20135;-67
2022/09/07 02:45:41;;;;;;;1.98;1.00;;;;;;;19.14;59.28;100728.47;4954752;28;20031;-66
2022/09/07 02:48:35;;;;;;;1.73;1.00;;;;;;;19.10;59.59;100731.25;4946292;28;20408;-67
2022/09/07 02:51:01;;;;;;;1.58;1.10;;;;;;;19.15;59.71;100730.78;4920983;28;20048;-66
2022/09/07 02:53:41;;;;;;;1.10;0.95;;;;;;;19.20;59.40;100737.75;4945731;28;20053;-67
2022/09/07 02:56:31;;;;;;;1.40;1.00;;;;;;;19.17;60.30;100725.69;4943708;28;20126;-67
2022/09/07 02:58:59;;;;;;;1.83;1.10;;;;;;;19.09;60.28;100720.72;4949730;28;20313;-66
2022/09/07 03:01:47;;;;;;;2.92;1.20;;;;;;;19.11;60.23;100726.53;4937358;28;20047;-67
2022/09/07 03:04:30;;;;;;;1.33;0.93;;;;;;;19.08;60.08;100717.25;4990278;28;20527;-66
2022/09/07 03:07:04;;;;;;;2.15;0.85;;;;;;;19.08;60.10;100728.16;4991399;28;20388;-67
2022/09/07 03:09:33;;;;;;;1.90;1.25;;;;;;;19.14;59.87;100715.59;4984586;28;20113;-67
2022/09/07 03:12:02;;;;;;;1.83;1.13;;;;;;;19.18;60.00;100718.28;4984136;28;20066;-66
2022/09/07 03:14:31;;;;;;;3.17;1.10;;;;;;;19.15;59.73;100722.59;5062579;22;20041;-62
2022/09/07 03:16:57;;;;;;;3.00;1.05;;;;;;;19.15;59.89;100727.28;5070486;28;20120;-63
2022/09/07 03:19:22;;;;;;;1.98;1.30;;;;;;;19.16;60.03;100726.88;5066939;28;20067;-62
2022/09/07 03:21:48;;;;;;;1.58;0.95;;;;;;;19.19;59.76;100719.81;5067184;28;20032;-63
2022/09/07 03:24:13;;;;;;;1.33;1.10;;;;;;;19.13;60.00;100708.56;5044621;28;20099;-62
2022/09/07 03:26:42;;;;;;;3.08;1.30;;;;;;;19.20;59.97;100708.47;5047419;28;20040;-63
2022/09/07 03:29:08;;;;;;;1.77;1.10;;;;;;;19.19;59.83;100701.47;5038162;28;20025;-63
2022/09/07 03:31:34;;;;;;;1.90;1.27;;;;;;;19.16;59.72;100707.78;5037986;28;20031;-62
2022/09/07 03:33:59;;;;;;;4.35;1.40;;;;;;;19.14;59.75;100704.69;5036787;28;20056;-63
2022/09/07 03:36:25;;;;;;;2.13;1.30;;;;;;;19.13;60.11;100684.00;5052060;28;20071;-62
2022/09/07 03:38:50;;;;;;;1.42;1.08;;;;;;;19.19;60.04;100684.31;5049657;28;20071;-62
2022/09/07 03:41:16;;;;;;;1.40;1.08;;;;;;;19.09;60.00;100680.53;5049856;28;20037;-63
2022/09/07 03:43:41;;;;;;;3.33;1.08;;;;;;;19.12;60.38;100678.97;5041259;28;20048;-63
2022/09/07 03:46:09;;;;;;;3.30;1.35;;;;;;;19.08;60.19;100676.28;5051243;28;20520;-63
2022/09/07 03:48:35;;;;;;;2.55;1.38;;;;;;;19.08;60.41;100676.28;5049681;28;20037;-62
2022/09/07 03:51:04;;;;;;;2.45;1.33;;;;;;;19.08;60.59;100670.03;5045426;28;20044;-63
2022/09/07 03:53:32;;;;;;;1.58;1.15;;;;;;;19.11;60.47;100664.53;5048881;28;20416;-63
2022/09/07 03:55:59;;;;;;;1.88;0.88;;;;;;;19.06;60.46;100669.69;5050095;28;20028;-62
2022/09/07 03:58:27;;;;;;;2.47;1.40;;;;;;;19.01;60.56;100659.97;5049459;28;20036;-63
2022/09/07 04:00:52;;;;;;;1.80;1.27;;;;;;;18.95;60.50;100653.44;5046013;28;20029;-63
2022/09/07 04:03:17;;;;;;;1.48;1.30;;;;;;;18.96;60.89;100648.75;5047415;28;20485;-63
2022/09/07 04:05:43;;;;;;;1.92;1.17;;;;;;;18.96;60.68;100648.75;5049562;28;20021;-62
2022/09/07 04:08:09;;;;;;;3.10;1.30;;;;;;;18.88;60.91;100637.94;5051256;28;20163;-62
2022/09/07 04:10:38;;;;;;;2.45;1.42;;;;;;;18.85;61.15;100648.91;5048103;28;20040;-63
2022/09/07 04:13:04;;;;;;;1.67;1.00;;;;;;;18.83;61.01;100646.56;5044610;28;20024;-63
2022/09/07 04:15:30;;;;;;;1.88;1.20;;;;;;;19.00;60.17;100641.28;5048585;28;20185;-63
2022/09/07 04:17:56;;;;;;;2.97;1.50;;;;;;;18.95;60.58;100647.97;5049295;28;20123;-63
2022/09/07 04:20:21;;;;;;;5.05;1.80;;;;;;;18.97;60.61;100636.66;5048329;28;20215;-63
2022/09/07 04:22:47;;;;;;;4.38;1.42;;;;;;;19.03;59.99;100632.28;5039069;28;20643;-63
2022/09/07 04:25:13;;;;;;;1.77;1.20;;;;;;;18.89;60.44;100634.00;5048608;28;20064;-63
2022/09/07 04:27:39;;;;;;;1.85;1.05;;;;;;;18.88;60.21;100624.28;5049205;28;20397;-63
2022/09/07 04:30:04;;;;;;;4.72;1.50;;;;;;;18.94;60.74;100627.34;5043751;28;20032;-63
2022/09/07 04:32:30;;;;;;;2.33;1.30;;;;;;;18.99;60.52;100626.09;5048163;28;20470;-63
2022/09/07 04:34:55;;;;;;;3.15;1.42;;;;;;;19.00;60.46;100622.19;5047288;28;20041;-63
2022/09/07 04:37:21;;;;;;;1.98;1.30;;;;;;;18.95;59.72;100626.13;5052080;28;20062;-63
2022/09/07 04:39:46;;;;;;;1.50;1.13;;;;;;;19.02;59.62;100620.59;5043316;28;20761;-63
2022/09/07 04:42:12;;;;;;;3.53;1.40;;;;;;;19.01;59.97;100624.50;5047649;28;20509;-63
2022/09/07 04:44:37;;;;;;;2.80;1.30;;;;;;;18.93;60.34;100617.59;5061362;28;20025;-63
2022/09/07 04:47:03;;;;;;;2.55;1.30;;;;;;;19.02;59.86;100619.81;5047638;28;20536;-63
2022/09/07 04:49:28;;;;;;;2.90;1.30;;;;;;;19.02;60.05;100628.78;5050837;28;20119;-67
2022/09/07 04:51:54;;;;;;;2.65;1.48;;;;;;;18.99;60.38;100629.59;5049264;28;20107;-63
2022/09/07 04:54:19;;;;;;;1.55;0.98;;;;;;;18.84;60.97;100641.91;5048204;28;20041;-63
2022/09/07 04:56:45;;;;;;;1.98;1.30;;;;;;;18.79;60.89;100651.31;5047930;28;20029;-63
2022/09/07 04:59:11;;;;;;;3.63;1.60;;;;;;;18.82;61.14;100645.03;5045567;28;20051;-63
2022/09/07 05:01:36;;;;;;;2.85;1.50;;;;;;;18.78;60.77;100652.50;5045538;28;20405;-64
2022/09/07 05:04:03;;;;;;;1.70;1.33;;;;;;;18.84;60.85;100658.28;5050507;28;20033;-64
2022/09/07 05:06:29;;;;;;;3.20;1.27;;;;;;;18.83;61.57;100660.22;5049216;28;20481;-64
2022/09/07 05:08:56;;;;;;;2.33;1.40;;;;;;;18.92;61.36;100662.47;5045261;28;20043;-63
2022/09/07 05:11:23;;;;;;;4.65;1.90;;;;;;;18.89;61.31;100679.66;5052780;28;20084;-63
2022/09/07 05:13:49;;;;;;;3.67;1.45;;;;;;;18.88;60.67;100708.91;5052249;28;20037;-64
2022/09/07 05:16:17;;;;;;;4.32;1.70;;;;;;;18.87;61.07;100740.09;5044864;28;20083;-64
2022/09/07 05:18:43;;;;;;;2.05;1.50;;;;;;;18.93;61.63;100763.03;5053209;28;20512;-63
2022/09/07 05:21:18;;;;;;;4.45;1.77;;;;;;;19.00;60.50;100764.91;5043460;28;20029;-64
2022/09/07 05:23:50;;;;;;;4.80;1.73;;;;;;;19.02;60.37;100737.97;5037430;28;20056;-63
2022/09/07 05:26:17;;;;;;;4.93;1.30;;;;;;;18.96;59.44;100738.84;5050454;28;20032;-63
2022/09/07 05:28:43;;;;;;;2.53;1.42;;;;;;;18.94;59.75;100763.81;5039550;28;20037;-63
2022/09/07 05:31:14;;;;;;;1.92;1.20;;;;;;;18.87;59.83;100766.66;5033625;28;20087;-63
2022/09/07 05:33:44;;;;;;;;;;;;;;;19.02;59.38;100746.19;5034321;28;20033;-63
2022/09/07 05:36:09;;;;;;;2.30;1.60;;;;;;;19.00;59.87;100739.56;5053243;28;19939;-63
2022/09/07 05:38:35;;;;;;;1.85;1.30;;;;;;;19.08;60.36;100760.13;5045318;28;20041;-63
2022/09/07 05:41:13;;;;;;;1.90;1.60;;;;;;;19.02;60.61;100756.31;5034129;28;20033;-65
2022/09/07 05:43:40;;;;;;;1.83;1.33;;;;;;;18.98;60.33;100729.06;5077493;28;20437;-65
2022/09/07 05:46:06;;;;;;;1.90;1.33;;;;;;;18.88;60.69;100719.06;5040309;28;20120;-65
2022/09/07 05:48:31;;;;;;;3.28;1.60;;;;;;;18.97;60.76;100732.97;5033815;28;20166;-65
2022/09/07 05:50:57;;;;;;;2.38;1.20;;;;;;;19.13;60.51;100724.97;5034429;28;20033;-65
2022/09/07 05:53:22;;;;;;;1.92;1.23;;;;;;;18.95;61.20;100732.59;5038879;28;20034;-65
2022/09/07 05:55:51;;;;;;;3.25;1.60;;;;;;;19.03;61.00;100736.03;5034070;28;20049;-66
2022/09/07 05:58:17;;;;;;;3.13;1.45;;;;;;;19.06;61.54;100732.47;5037434;28;20029;-65
2022/09/07 06:00:44;;;;;;;3.00;1.65;;;;;;;19.05;61.38;100737.16;5036520;28;20044;-65
2022/09/07 06:03:10;;;;;;;1.58;1.10;;;;;;;19.11;61.09;100727.31;5035898;28;20021;-68
2022/09/07 06:05:35;;;;;;;1.70;1.30;;;;;;;19.15;61.35;100706.22;5047468;28;20505;-65
2022/09/07 06:08:21;;;;;;;1.90;1.23;;;;;;;19.10;61.28;100736.72;5035721;28;20580;-65
2022/09/07 06:10:47;;;;;;;2.42;1.40;;;;;;;19.05;61.41;100722.75;4992217;28;20050;-64
2022/09/07 06:13:12;;;;;;;4.80;1.52;;;;;;;18.97;61.23;100716.59;4987221;28;20045;-65
2022/09/07 06:15:38;;;;;;;3.65;1.38;;;;;;;19.05;61.61;100720.78;4988238;28;20435;-64
2022/09/07 06:18:04;;;;;;;7.38;1.30;;;;;;;19.13;62.06;100714.03;4989182;28;20035;-64
2022/09/07 06:20:30;;;;;;;2.47;1.42;;;;;;;19.14;62.26;100726.53;4989346;28;20033;-64
2022/09/07 06:22:55;;;;;;;2.42;1.52;;;;;;;19.19;62.33;100717.06;4984944;28;20042;-64
2022/09/07 06:25:20;;;;;;;1.75;1.17;;;;;;;19.23;62.54;100726.78;4993102;28;20542;-64
2022/09/07 06:27:48;;;;;;;5.75;1.70;;;;;;;19.23;63.11;100724.03;4969447;28;20046;-64
2022/09/07 06:30:13;;;;;;;1.40;1.08;;;;;;;19.23;64.54;100724.03;4986353;28;20077;-64
2022/09/07 06:32:39;;;;;;;3.63;1.30;;;;;;;19.16;65.26;100724.16;4987075;28;20495;-64
2022/09/07 06:35:04;;;;;;;5.60;1.52;;;;;;;19.16;66.54;100729.63;4982014;28;20094;-64
2022/09/07 06:37:30;;;;;;;1.30;1.10;;;;;;;19.20;67.71;100727.59;4986217;28;20030;-64
2022/09/07 06:39:55;;;;;;;1.40;1.15;;;;;;;19.17;69.05;100727.63;4984765;28;20042;-64
2022/09/07 06:42:21;;;;;;;1.73;1.38;;;;;;;19.13;69.43;100724.19;4988345;28;20057;-64
2022/09/07 06:44:51;;;;;;;2.17;1.33;;;;;;;19.06;70.87;100735.97;4983230;28;21107;-64
2022/09/07 06:47:16;;;;;;;2.13;1.25;;;;;;;19.11;70.79;100740.97;5003028;28;20069;-64
2022/09/07 06:49:42;;;;;;;1.58;1.40;;;;;;;19.09;70.58;100720.72;5032219;28;20071;-64
2022/09/07 06:52:07;;;;;;;3.13;1.50;;;;;;;19.10;70.35;100728.53;5069767;28;20045;-64
2022/09/07 06:54:32;;;;;;;2.45;1.15;;;;;;;19.12;69.91;100737.09;5048659;28;20032;-64
2022/09/07 06:56:58;;;;;;;2.67;1.23;;;;;;;19.05;70.18;100737.16;5042733;28;20079;-64
2022/09/07 06:59:23;;;;;;;3.30;1.45;;;;;;;19.09;69.04;100723.44;5039052;28;20025;-64
2022/09/07 07:01:49;;;;;;;1.63;1.27;;;;;;;19.12;69.36;100723.44;5038500;28;20029;-64
2022/09/07 07:04:14;;;;;;;3.25;1.67;;;;;;;19.17;69.50;100724.91;5032616;28;20037;-64
2022/09/07 07:06:40;;;;;;;2.60;1.27;;;;;;;19.20;69.61;100724.84;5032174;28;20130;-64
2022/09/07 07:09:07;;;;;;;1.55;1.20;;;;;;;19.24;69.32;100727.56;5041014;28;20024;-64
2022/09/07 07:11:35;;;;;;;1.42;1.08;;;;;;;19.23;69.43;100717.81;5037618;28;20033;-64
2022/09/07 07:14:01;;;;;;;2.58;1.15;;;;;;;19.15;68.16;100714.41;5032583;28;20069;-64
2022/09/07 07:16:27;;;;;;;3.00;1.52;;;;;;;19.19;68.84;100717.84;5041702;28;20063;-64
2022/09/07 07:18:56;;;;;;;2.05;1.50;;;;;;;19.20;70.00;100715.91;5037503;28;20064;-64
2022/09/07 07:21:22;;;;;;;2.67;1.40;;;;;;;19.21;70.38;100726.41;5036993;28;20512;-64
2022/09/07 07:23:52;;;;;;;5.03;1.38;;;;;;;19.11;68.69;100715.63;5037932;28;20025;-64
2022/09/07 07:26:20;;;;;;;2.33;1.43;;;;;;;19.12;70.47;100704.31;5041840;28;20390;-64
2022/09/07 07:28:51;;;;;;;1.80;1.40;;;;;;;19.17;70.42;100705.78;5031451;28;20056;-63
2022/09/07 07:31:18;;;;;;;2.05;1.40;;;;;;;19.16;72.58;100704.25;5042688;28;20208;-63
2022/09/07 07:34:04;;;;;;;3.58;1.23;;;;;;;19.24;72.44;100692.81;5039961;28;20030;-63
2022/09/07 07:36:29;;;;;;;2.83;1.30;;;;;;;19.12;71.37;100690.66;4987227;28;20046;-63
2022/09/07 07:38:56;;;;;;;3.00;1.35;;;;;;;19.16;71.94;100691.38;4987118;28;20575;-63
2022/09/07 07:41:25;;;;;;;2.72;1.40;;;;;;;19.16;72.33;100688.66;4970523;28;20093;-64
2022/09/07 07:43:55;;;;;;;2.90;1.60;;;;;;;19.17;73.71;100679.25;4988771;28;20030;-63
2022/09/07 07:46:22;;;;;;;1.85;1.33;;;;;;;19.17;73.86;100678.47;4985263;28;20514;-63
2022/09/07 07:48:48;;;;;;;1.65;1.30;;;;;;;19.28;72.96;100671.69;4984715;28;20454;-63
2022/09/07 07:51:13;;;;;;;2.72;1.42;;;;;;;19.17;75.55;100671.06;4993771;28;20170;-63
2022/09/07 07:53:40;;;;;;;1.95;1.40;;;;;;;19.23;75.08;100674.88;4986192;28;20053;-63
2022/09/07 07:56:07;;;;;;;4.18;1.33;;;;;;;19.24;75.03;100690.06;4988634;28;20038;-64
2022/09/07 07:58:34;;;;;;;2.25;1.67;;;;;;;19.15;74.57;100689.81;4986866;28;20119;-64
2022/09/07 08:01:12;;;;;;;3.53;1.63;;;;;;;19.09;76.49;100669.63;4985054;28;20050;-63
2022/09/07 08:03:40;;;;;;;1.33;1.10;;;;;;;19.11;77.57;100656.34;4985053;28;20038;-63
2022/09/07 08:06:07;;;;;;;2.88;1.45;;;;;;;19.14;76.86;100650.06;4985512;28;20522;-63
2022/09/07 08:08:34;;;;;;;3.15;1.30;;;;;;;19.10;77.58;100667.66;4971955;28;20092;-63
2022/09/07 08:11:07;;;;;;;2.03;1.30;;;;;;;19.04;77.61;100661.13;4970558;28;20404;-64
2022/09/07 08:13:37;;;;;;;4.43;1.48;;;;;;;18.93;78.91;100645.66;5005247;28;20040;-63
2022/09/07 08:16:04;;;;;;;3.00;1.50;;;;;;;18.88;80.11;100635.22;5036722;28;20022;-63
2022/09/07 08:18:31;;;;;;;4.22;1.75;;;;;;;18.86;79.54;100634.06;5040384;28;20045;-63
2022/09/07 08:21:06;;;;;;;2.70;1.60;;;;;;;18.78;79.91;100629.88;5035467;28;20150;-63
2022/09/07 08:23:33;;;;;;;3.50;1.38;;;;;;;18.80;79.56;100631.03;5039602;28;20431;-62
2022/09/07 08:25:59;;;;;;;2.03;1.30;;;;;;;18.60;80.29;100629.38;5038490;28;20044;-63
2022/09/07 08:28:26;;;;;;;2.20;1.45;;;;;;;18.45;80.72;100633.44;5035837;28;20032;-62
2022/09/07 08:30:52;;;;;;;1.73;1.40;;;;;;;18.53;81.05;100621.25;5033836;28;20033;-62
2022/09/07 08:33:18;;;;;;;2.40;1.63;;;;;;;18.43;83.03;100617.47;5034851;28;20044;-62
2022/09/07 08:36:01;;;;;;;2.15;1.35;;;;;;;18.42;83.23;100604.22;5038741;28;20168;-65
2022/09/07 08:38:32;;;;;;;2.60;1.27;;;;;;;18.49;83.47;100604.16;5028378;28;20440;-62
2022/09/07 08:40:59;;;;;;;4.05;1.50;;;;;;;18.57;82.46;100594.72;5034459;28;20029;-63
2022/09/07 08:43:48;;;;;;;2.53;1.67;;;;;;;18.59;82.19;100595.06;5033052;28;20041;-62
2022/09/07 08:47:05;;;;;;;2.88;1.60;;;;;;;18.49;81.61;100601.44;5037974;28;20724;-62
2022/09/07 08:49:47;;;;;;;2.88;1.52;;;;;;;18.39;81.43;100605.81;5011373;28;20106;-62
2022/09/07 08:52:23;;;;;;;2.90;1.80;;;;;;;18.41;81.88;100599.94;5042829;28;20447;-62
2022/09/07 08:55:00;;;;;;;2.28;1.63;;;;;;;18.51;81.84;100613.50;5057657;28;20025;-63
2022/09/07 08:57:29;;;;;;;3.08;1.52;;;;;;;18.55;82.02;100610.72;5032481;28;20489;-63
2022/09/07 09:00:06;;;;;;;1.52;1.42;;;;;;;18.59;82.24;100616.91;5036702;28;20025;-64
2022/09/07 09:02:32;;;;;;;1.80;1.20;;;;;;;18.65;82.30;100623.44;5027767;28;20602;-63
2022/09/07 09:04:57;;;;;;;2.05;1.25;;;;;;;18.71;82.46;100636.22;5054422;28;20388;-64
2022/09/07 09:07:45;;;;;;;2.67;1.50;;;;;;;18.85;81.36;100638.00;5036064;28;20037;-64
2022/09/07 09:10:44;;;;;;;2.53;1.30;;;;;;;18.94;81.86;100654.63;5033063;28;20046;-63
2022/09/07 09:13:15;;;;;;;4.82;1.63;;;;;;;19.08;80.61;100668.09;5075298;22;20045;-66
2022/09/07 09:15:47;;;;;;;2.00;1.40;;;;;;;19.13;80.49;100672.28;5045163;28;20052;-67
2022/09/07 09:18:21;;;;;;;;;;;;;;;18.95;79.52;100669.06;5050438;28;20366;-66
2022/09/07 09:20:53;;;;;;;2.90;1.48;;;;;;;18.82;79.70;100666.88;5046798;28;20376;-67
2022/09/07 09:23:23;;;;;;;3.35;1.58;;;;;;;19.03;81.13;100687.66;5039942;28;20041;-67
2022/09/07 09:25:52;;;;;;;1.67;1.58;;;;;;;19.30;80.57;100679.47;5014257;28;20033;-66
2022/09/07 09:28:18;;;;;;;4.53;1.70;;;;;;;19.35;79.23;100681.75;5033046;28;20482;-66
2022/09/07 09:30:43;;;;;;;2.75;1.50;;;;;;;19.36;76.60;100692.28;5015070;28;20080;-66
2022/09/07 09:33:27;;;;;;;3.13;1.25;;;;;;;19.38;77.88;100681.72;5011260;28;20037;-66
2022/09/07 09:35:55;;;;;;;2.45;1.67;;;;;;;19.64;78.59;100700.03;5014026;28;20406;-66
2022/09/07 09:38:31;;;;;;;6.55;2.13;;;;;;;19.85;76.78;100695.41;5013864;28;20469;-66
2022/09/07 09:41:08;;;;;;;1.85;1.58;;;;;;;20.01;75.99;100681.84;5028501;28;20522;-67
2022/09/07 09:43:53;;;;;;;2.38;1.60;;;;;;;20.19;75.58;100693.28;5015142;28;20046;-66
2022/09/07 09:46:31;;;;;;;2.05;1.50;;;;;;;20.03;74.08;100696.66;5020187;28;20448;-66
2022/09/07 09:49:02;;;;;;;1.83;1.38;;;;;;;20.26;74.82;100688.44;5014304;28;20053;-67
2022/09/07 09:51:31;;;;;;;2.97;1.63;;;;;;;20.46;73.23;100678.28;5010753;28;20029;-67
2022/09/07 09:53:59;;;;;;;3.25;1.85;;;;;;;;;;5019149;28;20025;-67
2022/09/07 09:56:38;;;;;;;1.90;1.33;;;;;;;20.39;71.00;100696.78;5031756;28;20061;-67
2022/09/07 09:59:16;;;;;;;2.97;1.50;;;;;;;20.76;70.71;100690.97;5030307;28;20033;-67
2022/09/07 10:01:44;;;;;;;3.40;1.90;;;;;;;20.93;69.53;100687.06;5017928;28;20044;-67
2022/09/07 10:04:29;;;;;;;3.03;1.48;;;;;;;21.26;70.23;100696.94;5027467;28;20849;-67
2022/09/07 10:07:21;;;;;;;2.70;1.45;;;;;;;21.68;69.30;100694.41;5015352;28;20383;-67
2022/09/07 10:09:51;;;;;;;3.13;1.50;;;;;;;21.94;68.30;100691.41;5014571;28;20026;-66
2022/09/07 10:12:26;;;;;;;1.90;1.40;;;;;;;22.21;67.56;100682.84;5017728;28;20413;-66
2022/09/07 10:14:52;;;;;;;1.63;1.23;;;;;;;22.40;68.81;100679.97;5021953;28;20367;-66
2022/09/07 10:17:31;;;;;;;2.25;1.40;;;;;;;22.59;65.36;100683.03;5010460;28;20060;-66
2022/09/07 10:20:19;;;;;;;1.60;1.50;;;;;;;22.80;64.00;100674.91;5024262;28;20033;-66
2022/09/07 10:22:57;;;;;;;2.00;1.52;;;;;;;23.16;63.68;100674.63;5016182;28;20124;-66
2022/09/07 10:25:33;;;;;;;3.13;1.70;;;;;;;23.24;62.29;100673.19;5014317;28;20033;-66
2022/09/07 10:28:04;;;;;;;1.50;1.10;;;;;;;23.41;61.97;100674.63;5020117;28;20363;-66
2022/09/07 10:31:08;;;;;;;1.92;1.58;;;;;;;23.48;60.00;100670.91;5022123;28;20044;-66
2022/09/07 10:33:47;;;;;;;1.20;1.10;;;;;;;23.42;60.86;100673.44;5009388;28;20081;-66
2022/09/07 10:36:30;;;;;;;1.88;1.15;;;;;;;23.57;61.03;100671.75;5018435;28;20038;-66
2022/09/07 10:39:03;;;;;;;3.13;1.35;;;;;;;23.76;60.30;100664.44;5012370;28;20034;-67
2022/09/07 10:41:58;;;;;;;3.33;1.60;;;;;;;23.81;59.72;100670.16;5045895;28;20574;-67
2022/09/07 10:44:47;;;;;;;2.42;1.35;;;;;;;24.00;59.80;100671.09;5025071;28;20044;-66
2022/09/07 10:47:31;;;;;;;1.95;1.33;;;;;;;24.15;58.47;100669.41;5016319;28;20050;-67
2022/09/07 10:50:42;;;;;;;2.55;1.25;;;;;;;24.08;59.21;100670.44;5014371;28;20040;-67
2022/09/07 10:53:29;;;;;;;2.25;1.50;;;;;;;24.28;58.97;100677.59;5017115;28;20057;-67
2022/09/07 10:56:20;;;;;;;1.98;1.27;;;;;;;24.31;58.55;100666.50;5015952;28;20600;-67
2022/09/07 10:59:18;;;;;;;1.40;1.08;;;;;;;24.50;59.17;100665.41;5010511;28;20057;-66
2022/09/07 11:01:55;;;;;;;1.80;1.13;;;;;;;24.67;58.37;100652.94;5028145;28;20096;-67
2022/09/07 11:04:26;;;;;;;2.17;1.30;;;;;;;24.69;59.52;100644.22;5034968;28;20052;-67
2022/09/07 11:07:02;;;;;;;2.17;1.35;;;;;;;24.76;58.42;100655.00;5025034;28;20132;-67
2022/09/07 11:09:47;;;;;;;2.28;1.05;;;;;;;24.81;58.14;100662.69;5027769;28;20033;-67
2022/09/07 11:12:17;;;;;;;4.18;1.60;;;;;;;24.70;57.10;100657.53;5015363;28;20034;-67
2022/09/07 11:14:57;;;;;;;2.55;1.70;;;;;;;25.05;58.11;100656.22;5010173;28;20101;-67
2022/09/07 11:17:26;;;;;;;2.50;1.40;;;;;;;25.20;57.38;100641.88;5009404;28;20042;-65
2022/09/07 11:20:02;;;;;;;2.72;1.50;;;;;;;25.33;57.04;100642.50;5014055;28;20038;-66
2022/09/07 11:22:43;;;;;;;2.13;1.38;;;;;;;25.51;56.30;100639.84;5030047;28;20068;-66
2022/09/07 11:25:34;;;;;;;2.78;1.60;;;;;;;25.41;55.00;100643.78;5042653;28;20052;-66
2022/09/07 11:28:14;;;;;;;1.75;1.25;;;;;;;25.45;54.51;100647.19;4997400;28;20053;-67
2022/09/07 11:30:46;;;;;;;1.92;1.23;;;;;;;25.49;54.96;100642.28;5038411;28;20041;-66
2022/09/07 11:33:20;;;;;;;2.00;1.40;;;;;;;25.47;55.33;100650.25;5024848;28;20417;-67
2022/09/07 11:35:53;;;;;;;3.30;1.13;;;;;;;25.67;54.95;100634.78;5022996;28;20128;-67
2022/09/07 11:38:38;;;;;;;1.60;1.48;;;;;;;25.84;54.74;100641.53;5037218;28;20029;-67
2022/09/07 11:41:15;;;;;;;1.48;1.30;;;;;;;26.08;53.83;100629.91;5025056;28;20537;-67
2022/09/07 11:44:01;;;;;;;1.65;1.20;;;;;;;26.18;53.12;100634.22;5023770;28;20286;-67
2022/09/07 11:46:38;;;;;;;1.77;1.30;;;;;;;26.01;53.85;100630.22;5020175;28;20034;-67
2022/09/07 11:49:11;;;;;;;1.85;1.20;;;;;;;26.14;53.18;100631.59;5016344;28;20033;-67